Aérodrome :
LOGIN :

S'inscrire | Disclaimer

   EN    FR    IT 

 










Légende :    VFR   VFR Marginal   IFR   IFR Intensif   IFR Très Intensif
Visi : 
Plafond : 
>= 8 km
>= 3000ft
5 à 8 km
1000 à 3000 ft
1500m à 5 km
500 à 1000 ft
800 à 1500m
200 à 500 ft
< 800m
< 200 ft
Symboles :   Orages  Brouillard  Fortes neiges  Fortes précipitations  Vent > 20 kt
SIGMETs :   Divers  Orages  Givrage  Turbulence  Onde Orograph.  Cendres Volcan.






- Altitude de l'aérodrome : 2625 ft
- Code IATA : LEU


LESU - Aeròdrom dels Pirineus-Alt Urgell

DERNIER METAR :
  • 051600Z 03004KT 330V080 9999 SCT066 09/01 Q1020

METARs EXPIRÉS :
  • 051530Z 36006KT 330V040 9999 BKN067 10/01 Q1020
  • 051500Z 06007KT 040V100 9999 FEW064 SCT075 10/01 Q1020
  • 051430Z 04008KT 010V070 9999 FEW064 SCT075 10/01 Q1020
  • 051400Z 03010KT 360V060 9999 FEW065 SCT096 09/00 Q1020

TAF TAF LESU
Valide du 05 à 15h jusqu'au 06 à 15h UTC


051400Z 0515/0615 04010KT 9999 SCT030 TX13/0614Z TN05/0606Z
BECMG 0515/0517 VRB03KT



MET'MAP, la Météo Aéronautique d'un coup d'oeil ! - Copyright ORBIFLY Décembre 2007 - Disclaimer

ORBIFLY MET'MAP TEAM :

Programmation & Développement : Alexandra Zaïnal
Sur une idée originale de : Baudouin d'Aumeries
Assistance à la programmation : Marc-Olivier Méhu
Soutien technique & logistique : Manuel Goepfert

Contact : metmap@orbifly.com




SOURCES & CREDITS :

   NOAA